Time;durP1;ratioP1;P1;durP2;ratioP2;P2;SDS_P1;SDS_P2;PMS_P1;PMS_P2;Temp;Humidity;BMP_temperature;BMP_pressure;BME280_temperature;BME280_humidity;BME280_pressure;Samples;Min_cycle;Max_cycle;Signal;HPM_P1;HPM_P2
2023/01/23 03:50:14;;;;;;;54.70;20.30;;;;;;;;;;6184460;23;20643;-90
2023/01/23 03:53:20;;;;;;;52.10;19.97;;;;;;;;;;6212364;23;20195;-91
2023/01/23 03:56:26;;;;;;;52.63;19.63;;;;;;;;;;6212614;23;20166;-90
2023/01/23 03:59:31;;;;;;;53.23;20.10;;;;;;;;;;6211695;23;20163;-91
2023/01/23 04:02:36;;;;;;;56.77;20.77;;;;;;;;;;6213147;23;20487;-90
2023/01/23 04:05:43;;;;;;;55.53;20.60;;;;;;;;;;6212306;23;20484;-93
2023/01/23 04:08:48;;;;;;;54.30;19.90;;;;;;;;;;6213613;23;20166;-91
2023/01/23 04:11:52;;;;;;;59.00;21.80;;;;;;;;;;6211435;23;20164;-90
2023/01/23 04:14:59;;;;;;;50.63;20.03;;;;;;;;;;6210495;23;20215;-91
2023/01/23 04:18:04;;;;;;;54.93;19.73;;;;;;;;;;6212276;23;20183;-93
2023/01/23 04:21:11;;;;;;;52.70;20.00;;;;;;;;;;6211518;23;20481;-91
2023/01/23 04:24:17;;;;;;;50.77;20.20;;;;;;;;;;6210002;23;20167;-92
2023/01/23 04:27:23;;;;;;;54.77;20.07;;;;;;;;;;6211441;23;20281;-91
2023/01/23 04:30:29;;;;;;;50.93;20.00;;;;;;;;;;6210946;23;20162;-90
2023/01/23 04:33:38;;;;;;;54.27;19.80;;;;;;;;;;6212715;23;20190;-92
2023/01/23 04:36:47;;;;;;;51.10;18.60;;;;;;;;;;6211774;23;20605;-93
2023/01/23 04:39:53;;;;;;;55.20;20.80;;;;;;;;;;6209918;23;20199;-92
2023/01/23 04:43:00;;;;;;;54.50;20.60;;;;;;;;;;6210209;23;20202;-91
2023/01/23 04:46:15;;;;;;;49.90;19.53;;;;;;;;;;6209280;23;20168;-90
2023/01/23 04:49:41;;;;;;;56.30;21.47;;;;;;;;;;6230090;23;20186;-91
2023/01/23 04:52:48;;;;;;;55.10;20.27;;;;;;;;;;6211596;23;20190;-92
2023/01/23 04:55:54;;;;;;;51.27;19.93;;;;;;;;;;6211658;23;20216;-93
2023/01/23 04:59:00;;;;;;;53.43;20.57;;;;;;;;;;6211476;23;20167;-92
2023/01/23 05:02:05;;;;;;;49.67;19.43;;;;;;;;;;6214294;23;20154;-91
2023/01/23 05:05:19;;;;;;;44.83;17.60;;;;;;;;;;6214629;23;20601;-93
2023/01/23 05:08:26;;;;;;;50.93;19.30;;;;;;;;;;6214149;23;20214;-92
2023/01/23 05:16:05;;;;;;;42.67;16.83;;;;;;;;;;6232196;23;20168;-93
2023/01/23 05:19:28;;;;;;;39.90;16.50;;;;;;;;;;6214007;23;20195;-93
2023/01/23 05:22:34;;;;;;;45.60;16.77;;;;;;;;;;6215498;23;20159;-93
2023/01/23 05:25:41;;;;;;;47.67;17.10;;;;;;;;;;6216217;23;20151;-91
2023/01/23 05:28:47;;;;;;;41.37;17.13;;;;;;;;;;6215254;23;20579;-91
2023/01/23 05:31:53;;;;;;;41.43;17.23;;;;;;;;;;6215687;23;20198;-91
2023/01/23 05:35:17;;;;;;;45.07;16.33;;;;;;;;;;6235485;23;20171;-93
2023/01/23 05:38:22;;;;;;;37.03;14.37;;;;;;;;;;6214613;23;20175;-93
2023/01/23 05:41:29;;;;;;;38.60;15.47;;;;;;;;;;6216444;23;20170;-94
2023/01/23 05:44:54;;;;;;;35.83;14.27;;;;;;;;;;6215908;23;20171;-92
2023/01/23 05:48:12;;;;;;;36.57;14.77;;;;;;;;;;6215003;23;20163;-92
2023/01/23 05:51:18;;;;;;;31.47;13.30;;;;;;;;;;6214451;23;20524;-92
2023/01/23 05:54:23;;;;;;;35.83;13.90;;;;;;;;;;6215219;23;20179;-92
2023/01/23 05:57:31;;;;;;;29.43;12.77;;;;;;;;;;6213664;23;20194;-91
2023/01/23 06:00:55;;;;;;;30.97;13.70;;;;;;;;;;6234672;23;20286;-91
2023/01/23 06:04:30;;;;;;;30.20;12.63;;;;;;;;;;6235049;23;20179;-91
2023/01/23 06:07:48;;;;;;;28.67;12.40;;;;;;;;;;6213695;23;20168;-90
2023/01/23 06:10:53;;;;;;;26.00;11.37;;;;;;;;;;6216446;23;20154;-91
2023/01/23 06:14:00;;;;;;;30.60;12.17;;;;;;;;;;6213275;23;20195;-91
2023/01/23 06:17:07;;;;;;;31.03;13.63;;;;;;;;;;6215106;23;20167;-90
2023/01/23 06:20:14;;;;;;;31.40;12.70;;;;;;;;;;6217890;23;20150;-92
2023/01/23 06:23:23;;;;;;;34.40;13.03;;;;;;;;;;6215680;23;20191;-90
2023/01/23 06:26:38;;;;;;;33.57;13.30;;;;;;;;;;6217107;23;20241;-91
2023/01/23 06:29:45;;;;;;;29.07;11.60;;;;;;;;;;6215716;23;20151;-92
2023/01/23 06:32:50;;;;;;;32.77;13.63;;;;;;;;;;6216007;23;20208;-92
2023/01/23 06:36:05;;;;;;;32.67;13.00;;;;;;;;;;6217346;23;20175;-92
2023/01/23 06:39:14;;;;;;;33.07;14.07;;;;;;;;;;6216212;23;20178;-91
2023/01/23 06:42:20;;;;;;;35.20;14.13;;;;;;;;;;6215819;23;20170;-93
2023/01/23 06:45:30;;;;;;;30.00;12.40;;;;;;;;;;6215870;23;20207;-92
2023/01/23 06:48:36;;;;;;;30.63;13.80;;;;;;;;;;6213245;23;20175;-91
2023/01/23 06:51:42;;;;;;;32.67;14.77;;;;;;;;;;6212567;23;20171;-89
2023/01/23 06:54:54;;;;;;;47.57;17.67;;;;;;;;;;6214833;23;20195;-93
2023/01/23 06:58:00;;;;;;;48.03;17.27;;;;;;;;;;6212435;23;20642;-93
2023/01/23 07:01:12;;;;;;;42.63;17.30;;;;;;;;;;6214481;23;20167;-92
2023/01/23 07:04:37;;;;;;;44.17;19.10;;;;;;;;;;6235013;23;20163;-91
2023/01/23 07:07:43;;;;;;;48.03;18.67;;;;;;;;;;6218496;23;20206;-89
2023/01/23 07:10:50;;;;;;;48.47;18.33;;;;;;;;;;6215410;23;20174;-90
2023/01/23 07:13:55;;;;;;;41.43;17.47;;;;;;;;;;6215156;23;20210;-90
2023/01/23 07:17:02;;;;;;;42.43;17.33;;;;;;;;;;6232361;23;20167;-90
2023/01/23 07:20:09;;;;;;;37.70;16.77;;;;;;;;;;6214463;23;20651;-91
2023/01/23 07:23:27;;;;;;;43.47;16.87;;;;;;;;;;6215066;23;20175;-91
2023/01/23 07:26:33;;;;;;;46.13;17.57;;;;;;;;;;6215804;23;20167;-92
2023/01/23 07:29:38;;;;;;;44.30;16.27;;;;;;;;;;6214513;23;20151;-91
2023/01/23 07:32:46;;;;;;;43.33;16.77;;;;;;;;;;6213720;23;20490;-91
2023/01/23 07:35:51;;;;;;;37.67;15.73;;;;;;;;;;6215553;23;20155;-92
2023/01/23 07:38:59;;;;;;;38.47;15.90;;;;;;;;;;6217034;23;20163;-93
2023/01/23 07:42:04;;;;;;;41.40;16.73;;;;;;;;;;6217566;23;20171;-90
2023/01/23 07:45:11;;;;;;;34.40;15.23;;;;;;;;;;6215486;23;20199;-92
2023/01/23 07:48:18;;;;;;;31.80;14.00;;;;;;;;;;6214583;23;20167;-89
2023/01/23 07:51:23;;;;;;;35.43;14.53;;;;;;;;;;6216457;23;20198;-93
2023/01/23 07:54:29;;;;;;;48.90;18.47;;;;;;;;;;6212210;23;20215;-89
2023/01/23 08:00:54;;;;;;;42.70;18.87;;;;;;;;;;6216135;23;20167;-90
2023/01/23 08:04:11;;;;;;;37.83;15.47;;;;;;;;;;6214474;23;20168;-90
2023/01/23 08:07:18;;;;;;;34.17;15.20;;;;;;;;;;6214047;23;20238;-92
2023/01/23 08:10:24;;;;;;;41.00;15.63;;;;;;;;;;6215581;23;20240;-92
2023/01/23 08:13:29;;;;;;;38.53;15.83;;;;;;;;;;6214353;23;20278;-94
2023/01/23 08:16:35;;;;;;;36.63;15.20;;;;;;;;;;6214265;23;20245;-92
2023/01/23 08:19:42;;;;;;;31.63;13.97;;;;;;;;;;6212528;23;20215;-92
2023/01/23 08:22:48;;;;;;;50.67;18.53;;;;;;;;;;6215382;23;20179;-92
2023/01/23 08:25:54;;;;;;;35.73;14.07;;;;;;;;;;6216658;23;20210;-91
2023/01/23 08:29:02;;;;;;;40.33;16.23;;;;;;;;;;6215874;23;20171;-91
2023/01/23 08:32:08;;;;;;;29.57;11.93;;;;;;;;;;6215850;23;20171;-92
2023/01/23 08:38:35;;;;;;;34.37;14.30;;;;;;;;;;6232660;23;20175;-92
2023/01/23 08:41:40;;;;;;;37.27;15.33;;;;;;;;;;6213552;23;20179;-92
2023/01/23 08:44:46;;;;;;;31.77;14.27;;;;;;;;;;6213460;23;20220;-93
2023/01/23 08:47:53;;;;;;;33.57;13.90;;;;;;;;;;6215387;23;20225;-93
2023/01/23 08:51:04;;;;;;;33.70;14.00;;;;;;;;;;6214107;23;20167;-91
2023/01/23 08:54:09;;;;;;;38.00;15.33;;;;;;;;;;6214980;23;20222;-91
2023/01/23 08:57:14;;;;;;;34.50;15.07;;;;;;;;;;6214253;23;20163;-91
2023/01/23 09:00:21;;;;;;;37.03;16.50;;;;;;;;;;6214418;23;20237;-91
2023/01/23 09:03:27;;;;;;;41.20;16.93;;;;;;;;;;6215414;23;20175;-92
2023/01/23 09:06:40;;;;;;;35.27;14.13;;;;;;;;;;6215917;23;20151;-92
2023/01/23 09:09:45;;;;;;;32.27;14.93;;;;;;;;;;6214551;23;20230;-91
2023/01/23 09:12:56;;;;;;;38.23;14.60;;;;;;;;;;6215650;23;20171;-93
2023/01/23 09:16:03;;;;;;;33.40;15.73;;;;;;;;;;6212691;23;20170;-92
2023/01/23 09:19:09;;;;;;;33.40;14.13;;;;;;;;;;6214303;23;20150;-92
2023/01/23 09:22:16;;;;;;;30.07;13.60;;;;;;;;;;6216907;23;20218;-91
2023/01/23 09:25:22;;;;;;;34.07;13.67;;;;;;;;;;6214795;23;20171;-90
2023/01/23 09:28:27;;;;;;;34.40;14.77;;;;;;;;;;6214562;23;20151;-92
2023/01/23 09:31:33;;;;;;;30.67;13.63;;;;;;;;;;6215174;23;20188;-92
2023/01/23 09:34:39;;;;;;;29.67;13.30;;;;;;;;;;6216795;23;20194;-91
2023/01/23 09:38:03;;;;;;;30.77;12.07;;;;;;;;;;6216841;23;20168;-92
2023/01/23 09:41:10;;;;;;;30.97;12.30;;;;;;;;;;6215831;23;20265;-92
2023/01/23 09:44:19;;;;;;;30.03;13.13;;;;;;;;;;6217791;23;20614;-91
2023/01/23 09:47:29;;;;;;;30.67;12.70;;;;;;;;;;6234485;23;20175;-92
2023/01/23 09:50:37;;;;;;;29.50;12.67;;;;;;;;;;6217046;23;20187;-91
2023/01/23 09:53:44;;;;;;;24.33;11.87;;;;;;;;;;6216287;23;20148;-92
2023/01/23 09:56:50;;;;;;;28.63;12.03;;;;;;;;;;6187276;23;20151;-91
2023/01/23 10:00:00;;;;;;;30.77;12.27;;;;;;;;;;6187713;23;20211;-92
2023/01/23 10:03:15;;;;;;;28.27;12.20;;;;;;;;;;6187827;23;20164;-90
2023/01/23 10:06:23;;;;;;;27.70;13.17;;;;;;;;;;6189665;23;20172;-91
2023/01/23 10:09:40;;;;;;;29.67;12.73;;;;;;;;;;6189558;23;20168;-90
2023/01/23 10:13:02;;;;;;;29.90;13.27;;;;;;;;;;6190832;23;20215;-90
2023/01/23 10:16:19;;;;;;;30.40;12.50;;;;;;;;;;6189086;23;20222;-93
2023/01/23 10:19:36;;;;;;;31.50;13.53;;;;;;;;;;6190669;23;20153;-89
2023/01/23 10:26:13;;;;;;;33.00;13.43;;;;;;;;;;6190757;23;20248;-91
2023/01/23 10:29:27;;;;;;;28.97;12.47;;;;;;;;;;6190179;23;20188;-90
2023/01/23 10:32:50;;;;;;;24.90;12.77;;;;;;;;;;6190148;23;20152;-91
2023/01/23 10:35:57;;;;;;;31.00;12.70;;;;;;;;;;6188105;23;20199;-92
2023/01/23 10:39:05;;;;;;;30.40;13.33;;;;;;;;;;6190463;23;20213;-92
2023/01/23 10:42:13;;;;;;;28.83;12.93;;;;;;;;;;6190795;23;20203;-92
2023/01/23 10:45:20;;;;;;;26.70;12.13;;;;;;;;;;6187996;23;20172;-91
2023/01/23 10:48:30;;;;;;;26.77;12.60;;;;;;;;;;6187978;23;20151;-92
2023/01/23 10:51:46;;;;;;;29.67;13.30;;;;;;;;;;6187600;23;20217;-92
2023/01/23 10:54:52;;;;;;;27.97;12.63;;;;;;;;;;6199885;23;20210;-90
2023/01/23 11:27:04;;;;;;;55.37;20.60;;;;;;;;;;6125980;22;2778326;-91
2023/01/23 11:30:26;;;;;;;53.03;19.60;;;;;;;;;;6242095;23;20170;-92
2023/01/23 11:33:39;;;;;;;52.93;20.97;;;;;;;;;;6242004;23;20210;-91
2023/01/23 11:36:49;;;;;;;52.70;20.77;;;;;;;;;;6248316;23;20170;-92
2023/01/23 11:39:56;;;;;;;53.70;20.57;;;;;;;;;;6243226;23;20183;-92
2023/01/23 11:43:03;;;;;;;54.33;21.47;;;;;;;;;;6244001;23;20163;-91
2023/01/23 11:46:21;;;;;;;50.73;19.97;;;;;;;;;;6243331;23;20171;-91
2023/01/23 11:49:30;;;;;;;48.53;20.90;;;;;;;;;;6242593;23;20650;-92
2023/01/23 11:52:41;;;;;;;48.03;19.80;;;;;;;;;;6242190;23;20194;-93
2023/01/23 11:55:56;;;;;;;54.17;19.40;;;;;;;;;;6241867;23;20150;-90
2023/01/23 11:59:19;;;;;;;45.97;18.57;;;;;;;;;;6241717;23;20226;-92
2023/01/23 12:02:51;;;;;;;45.90;19.37;;;;;;;;;;6241711;23;20497;-93
2023/01/23 12:06:15;;;;;;;44.33;17.60;;;;;;;;;;6241869;23;20182;-92
2023/01/23 12:09:22;;;;;;;45.13;18.30;;;;;;;;;;6241036;23;20218;-91
2023/01/23 12:12:33;;;;;;;47.40;17.90;;;;;;;;;;6232846;23;20148;-94
2023/01/23 12:15:44;;;;;;;45.27;18.47;;;;;;;;;;6235169;23;20232;-91
2023/01/23 12:18:57;;;;;;;42.17;18.30;;;;;;;;;;6234248;23;20238;-91
2023/01/23 12:22:13;;;;;;;44.40;18.17;;;;;;;;;;6235305;23;20171;-93
2023/01/23 12:25:24;;;;;;;48.07;18.13;;;;;;;;;;6233787;23;20214;-91
2023/01/23 12:28:42;;;;;;;42.60;19.17;;;;;;;;;;6216689;23;20167;-94
2023/01/23 12:35:42;;;;;;;41.43;17.33;;;;;;;;;;6216246;23;20168;-94
2023/01/23 12:38:52;;;;;;;44.90;18.93;;;;;;;;;;6217575;23;20152;-91
2023/01/23 12:42:02;;;;;;;39.20;17.40;;;;;;;;;;6216339;23;20212;-92
2023/01/23 12:45:13;;;;;;;43.73;18.57;;;;;;;;;;6217556;22;20166;-92
2023/01/23 12:51:46;;;;;;;50.97;19.07;;;;;;;;;;6217713;23;20171;-92
2023/01/23 12:54:54;;;;;;;45.40;19.53;;;;;;;;;;6217772;23;20167;-92
2023/01/23 12:58:01;;;;;;;38.30;16.23;;;;;;;;;;6217391;23;20167;-91
2023/01/23 13:01:27;;;;;;;41.53;17.03;;;;;;;;;;6217718;22;20207;-92
2023/01/23 13:04:40;;;;;;;38.73;15.27;;;;;;;;;;6218961;23;20171;-91
2023/01/23 13:14:45;;;;;;;38.90;16.27;;;;;;;;;;6215525;23;20146;-91
2023/01/23 13:17:51;;;;;;;43.03;18.20;;;;;;;;;;6217759;23;20171;-91
2023/01/23 13:28:46;;;;;;;41.40;17.23;;;;;;;;;;6213940;23;20199;-91
2023/01/23 13:31:55;;;;;;;40.30;17.17;;;;;;;;;;6215146;23;20171;-91
2023/01/23 13:35:29;;;;;;;44.63;17.83;;;;;;;;;;6214751;23;20175;-91
2023/01/23 13:38:36;;;;;;;44.03;18.17;;;;;;;;;;6215161;23;20171;-90
2023/01/23 13:41:48;;;;;;;42.63;17.33;;;;;;;;;;6216682;23;20170;-92
2023/01/23 13:45:13;;;;;;;46.67;19.23;;;;;;;;;;6217199;23;20163;-93
2023/01/23 13:51:55;;;;;;;44.67;18.90;;;;;;;;;;6176341;23;20167;-91
2023/01/23 13:58:33;;;;;;;46.20;18.13;;;;;;;;;;6214082;23;20199;-91
2023/01/23 14:05:15;;;;;;;44.57;18.00;;;;;;;;;;6218350;23;20168;-90
2023/01/23 14:08:21;;;;;;;42.97;18.40;;;;;;;;;;6217301;23;20263;-92
2023/01/23 14:12:06;;;;;;;42.70;18.37;;;;;;;;;;6216979;23;20190;-91
2023/01/23 14:18:53;;;;;;;49.80;19.47;;;;;;;;;;6215217;23;20155;-92
2023/01/23 14:22:01;;;;;;;46.60;19.33;;;;;;;;;;6216565;23;20477;-94
2023/01/23 14:25:16;;;;;;;45.77;18.13;;;;;;;;;;6215449;23;20492;-92
2023/01/23 14:28:22;;;;;;;45.40;19.20;;;;;;;;;;6234252;22;20167;-91
2023/01/23 14:31:31;;;;;;;43.40;18.10;;;;;;;;;;6233742;22;20174;-92
2023/01/23 14:34:39;;;;;;;43.63;18.80;;;;;;;;;;6235043;22;20167;-92
2023/01/23 14:37:46;;;;;;;51.33;19.77;;;;;;;;;;6233365;22;20222;-93
2023/01/23 14:40:53;;;;;;;48.00;18.77;;;;;;;;;;6232636;22;20248;-91
2023/01/23 14:43:59;;;;;;;46.50;18.40;;;;;;;;;;6234517;22;20146;-94
2023/01/23 14:47:09;;;;;;;51.27;20.73;;;;;;;;;;6233021;22;20175;-93
2023/01/23 14:50:22;;;;;;;50.97;20.60;;;;;;;;;;6234442;23;20220;-92
2023/01/23 14:53:29;;;;;;;50.67;20.00;;;;;;;;;;6216802;22;20167;-92
2023/01/23 14:56:37;;;;;;;53.43;21.17;;;;;;;;;;6233414;22;20164;-93
2023/01/23 14:59:43;;;;;;;43.83;19.57;;;;;;;;;;6233367;22;20194;-93
2023/01/23 15:02:53;;;;;;;49.20;20.83;;;;;;;;;;6231926;23;20221;-93
2023/01/23 15:06:00;;;;;;;55.83;21.40;;;;;;;;;;6232854;22;20175;-89
2023/01/23 15:09:07;;;;;;;56.00;22.43;;;;;;;;;;6233200;22;20175;-91
2023/01/23 15:12:16;;;;;;;53.10;21.03;;;;;;;;;;6233824;22;20236;-91
2023/01/23 15:15:22;;;;;;;55.83;23.23;;;;;;;;;;6232898;22;20187;-93
2023/01/23 15:18:29;;;;;;;118.00;36.93;;;;;;;;;;6233098;23;20174;-90
2023/01/23 15:21:38;;;;;;;99.30;37.73;;;;;;;;;;6231829;22;20252;-91
2023/01/23 15:57:00;;;;;;;129.50;42.20;;;;;;;;;;6203311;22;20216;-92
2023/01/23 16:00:14;;;;;;;53.10;20.93;;;;;;;;;;6217231;23;20199;-89
2023/01/23 16:03:19;;;;;;;64.60;27.77;;;;;;;;;;6216848;23;20593;-91
2023/01/23 16:06:25;;;;;;;53.03;23.20;;;;;;;;;;6217057;23;20187;-92
2023/01/23 16:09:33;;;;;;;62.83;20.57;;;;;;;;;;6218980;23;20155;-92
2023/01/23 16:12:40;;;;;;;55.40;22.23;;;;;;;;;;6215732;23;20171;-92
2023/01/23 16:15:45;;;;;;;51.47;20.57;;;;;;;;;;6216927;23;20171;-93
2023/01/23 16:18:51;;;;;;;57.07;23.67;;;;;;;;;;6218055;23;20175;-91
2023/01/23 16:21:58;;;;;;;53.70;23.70;;;;;;;;;;6218457;23;20194;-91
2023/01/23 16:25:05;;;;;;;58.70;23.50;;;;;;;;;;6216979;23;20238;-88
2023/01/23 16:28:14;;;;;;;60.33;24.33;;;;;;;;;;6217970;23;20214;-91
2023/01/23 16:31:20;;;;;;;54.23;22.60;;;;;;;;;;6216552;23;20172;-91
2023/01/23 16:34:27;;;;;;;57.83;22.50;;;;;;;;;;6216679;23;20171;-89
2023/01/23 16:37:41;;;;;;;52.83;21.37;;;;;;;;;;6217367;23;20201;-91
2023/01/23 16:40:50;;;;;;;50.97;20.20;;;;;;;;;;6215724;23;20231;-89
2023/01/23 17:01:36;;;;;;;51.37;21.33;;;;;;;;;;6244908;22;20207;-92
2023/01/23 17:04:44;;;;;;;61.63;25.23;;;;;;;;;;6251288;23;20170;-91
2023/01/23 17:07:49;;;;;;;49.90;21.23;;;;;;;;;;6247126;23;20500;-90
2023/01/23 17:10:56;;;;;;;56.60;23.90;;;;;;;;;;6249270;22;20222;-90
2023/01/23 17:14:05;;;;;;;51.47;21.87;;;;;;;;;;6247510;23;20150;-92
2023/01/23 17:17:15;;;;;;;55.33;21.43;;;;;;;;;;6245984;23;20265;-90
2023/01/23 17:20:20;;;;;;;52.37;20.97;;;;;;;;;;6245979;23;20190;-92
2023/01/23 17:23:26;;;;;;;54.60;21.77;;;;;;;;;;6249216;22;20154;-91
2023/01/23 17:26:32;;;;;;;61.03;24.23;;;;;;;;;;6248619;22;20173;-93
2023/01/23 17:29:37;;;;;;;58.23;22.57;;;;;;;;;;6248806;23;20200;-91
2023/01/23 17:32:46;;;;;;;57.33;22.00;;;;;;;;;;6246965;22;20190;-92
2023/01/23 17:35:54;;;;;;;58.77;22.80;;;;;;;;;;6247347;23;20218;-92
2023/01/23 17:39:02;;;;;;;53.73;22.10;;;;;;;;;;6249536;22;20165;-90
2023/01/23 17:42:10;;;;;;;56.07;22.93;;;;;;;;;;6246854;23;20233;-90
2023/01/23 17:45:16;;;;;;;55.30;22.57;;;;;;;;;;6247809;23;20158;-93
2023/01/23 17:48:28;;;;;;;65.67;26.30;;;;;;;;;;6248809;22;20205;-91
2023/01/23 17:51:34;;;;;;;67.43;25.57;;;;;;;;;;6248067;23;20243;-94
2023/01/23 17:54:39;;;;;;;64.90;26.80;;;;;;;;;;6248317;22;20213;-91
2023/01/23 17:58:01;;;;;;;65.30;25.87;;;;;;;;;;6247505;22;20167;-92
2023/01/23 18:04:47;;;;;;;58.37;23.80;;;;;;;;;;6249357;23;20167;-92
2023/01/23 18:07:55;;;;;;;57.20;23.53;;;;;;;;;;6251340;22;20200;-90
